createdAt,value
2022-08-03T00:01:50.847Z,20.66
2022-08-03T00:04:17.719Z,20.85
2022-08-03T00:06:44.261Z,20.69
2022-08-03T00:09:11.475Z,20.66
2022-08-03T00:11:38.544Z,20.60
2022-08-03T00:14:06.361Z,20.64
2022-08-03T00:16:33.121Z,20.58
2022-08-03T00:19:01.079Z,20.68
2022-08-03T00:21:28.832Z,20.65
2022-08-03T00:23:55.405Z,20.49
2022-08-03T00:26:22.145Z,20.49
2022-08-03T00:28:49.494Z,20.47
2022-08-03T00:31:16.874Z,20.54
2022-08-03T00:33:59.073Z,20.41
2022-08-03T00:36:27.349Z,20.26
2022-08-03T00:38:53.825Z,20.44
2022-08-03T00:41:20.342Z,20.33
2022-08-03T00:43:47.540Z,20.29
2022-08-03T00:46:19.064Z,20.26
2022-08-03T00:48:49.290Z,20.24
2022-08-03T00:51:16.088Z,20.23
2022-08-03T00:53:43.414Z,20.23
2022-08-03T00:56:13.792Z,20.22
2022-08-03T00:58:40.483Z,20.22
2022-08-03T01:01:07.345Z,20.09
2022-08-03T01:03:34.497Z,20.01
2022-08-03T01:06:10.258Z,19.85
2022-08-03T01:08:46.763Z,19.44
2022-08-03T01:11:32.291Z,19.35
2022-08-03T01:14:18.665Z,19.36
2022-08-03T01:17:08.128Z,19.65
2022-08-03T01:19:45.638Z,19.47
2022-08-03T01:22:28.942Z,19.39
2022-08-03T01:25:31.783Z,19.29
2022-08-03T01:28:06.589Z,19.15
2022-08-03T01:30:37.659Z,19.30
2022-08-03T01:33:10.792Z,19.44
2022-08-03T01:35:53.379Z,19.39
2022-08-03T01:38:28.899Z,19.33
2022-08-03T01:40:57.143Z,19.33
2022-08-03T01:43:58.976Z,19.14
2022-08-03T01:46:20.650Z,19.40
2022-08-03T01:48:49.205Z,19.18
2022-08-03T01:51:18.442Z,19.22
2022-08-03T01:53:45.630Z,19.22
2022-08-03T01:56:14.437Z,19.21
2022-08-03T01:58:41.774Z,19.15
2022-08-03T02:01:10.229Z,19.01
2022-08-03T02:03:59.486Z,19.06
2022-08-03T02:07:02.791Z,18.98
2022-08-03T02:09:20.052Z,18.92
2022-08-03T02:11:48.012Z,18.85
2022-08-03T02:14:16.355Z,19.06
2022-08-03T02:16:44.815Z,18.90
2022-08-03T02:19:11.882Z,19.00
2022-08-03T02:21:57.408Z,18.83
2022-08-03T02:24:26.599Z,18.88
2022-08-03T02:26:56.043Z,18.86
2022-08-03T02:29:39.709Z,18.76
2022-08-03T02:32:12.593Z,18.74
2022-08-03T02:34:40.969Z,18.79
2022-08-03T02:37:10.305Z,18.86
2022-08-03T02:39:37.863Z,18.72
2022-08-03T02:42:08.634Z,18.71
2022-08-03T02:44:36.136Z,18.63
2022-08-03T02:47:06.434Z,18.56
2022-08-03T02:49:42.616Z,18.54
2022-08-03T02:52:18.416Z,18.48
2022-08-03T02:54:47.212Z,18.49
2022-08-03T02:57:15.208Z,18.46
2022-08-03T02:59:42.843Z,18.37
2022-08-03T03:02:10.301Z,18.23
2022-08-03T03:04:37.542Z,18.13
2022-08-03T03:07:13.603Z,17.92
2022-08-03T03:09:43.326Z,17.92
2022-08-03T03:12:12.067Z,17.93
2022-08-03T03:14:39.335Z,17.83
2022-08-03T03:17:10.254Z,17.81
2022-08-03T03:19:39.257Z,17.70
2022-08-03T03:22:07.674Z,17.59
2022-08-03T03:24:35.959Z,17.80
2022-08-03T03:27:03.551Z,17.78
2022-08-03T03:29:30.442Z,17.77
2022-08-03T03:32:08.357Z,17.87
2022-08-03T03:34:36.494Z,17.81
2022-08-03T03:37:03.113Z,17.80
2022-08-03T03:39:29.679Z,17.73
2022-08-03T03:41:57.413Z,17.71
2022-08-03T03:44:28.151Z,17.71
2022-08-03T03:46:55.954Z,17.89
2022-08-03T03:49:22.812Z,17.71
2022-08-03T03:51:53.556Z,17.83
2022-08-03T03:54:20.128Z,17.84
2022-08-03T03:56:46.791Z,17.73
2022-08-03T03:59:13.346Z,17.77
2022-08-03T04:01:40.120Z,17.65
2022-08-03T04:04:25.093Z,17.66
2022-08-03T04:07:09.902Z,17.91
2022-08-03T04:09:59.241Z,17.88
2022-08-03T04:12:38.441Z,17.92
2022-08-03T04:15:21.430Z,17.73
2022-08-03T04:17:50.565Z,17.83
2022-08-03T04:20:20.737Z,17.83
2022-08-03T04:22:51.365Z,17.96
2022-08-03T04:25:20.880Z,17.98
2022-08-03T04:28:29.732Z,17.99
2022-08-03T04:30:38.831Z,18.04
2022-08-03T04:33:06.928Z,18.10
2022-08-03T04:36:00.991Z,18.12
2022-08-03T04:38:24.864Z,18.09
2022-08-03T04:40:52.974Z,18.07
2022-08-03T04:43:21.852Z,18.25
2022-08-03T04:45:50.110Z,18.40
2022-08-03T04:48:17.504Z,18.46
2022-08-03T04:50:44.689Z,18.50
2022-08-03T04:53:11.210Z,18.62
2022-08-03T04:55:37.742Z,18.81
2022-08-03T04:58:04.984Z,18.87
2022-08-03T05:00:31.711Z,19.00
2022-08-03T05:02:58.359Z,18.83
2022-08-03T05:05:25.173Z,18.89
2022-08-03T05:07:51.900Z,18.97
2022-08-03T05:10:19.770Z,18.96
2022-08-03T05:12:48.441Z,19.08
2022-08-03T05:15:15.318Z,19.23
2022-08-03T05:17:41.839Z,19.13
2022-08-03T05:20:09.277Z,19.11
2022-08-03T05:22:35.888Z,19.28
2022-08-03T05:25:02.598Z,19.57
2022-08-03T05:27:29.169Z,19.85
2022-08-03T05:29:55.946Z,20.02
2022-08-03T05:32:42.483Z,20.13
2022-08-03T05:36:02.098Z,20.39
2022-08-03T05:37:56.313Z,20.63
2022-08-03T05:40:22.823Z,20.82
2022-08-03T05:42:49.888Z,21.07
2022-08-03T05:45:18.639Z,21.46
2022-08-03T05:47:45.887Z,21.59
2022-08-03T05:50:13.075Z,21.63
2022-08-03T05:52:40.650Z,21.77
2022-08-03T05:55:08.107Z,21.95
2022-08-03T05:57:35.336Z,21.84
2022-08-03T06:00:06.610Z,21.87
2022-08-03T06:02:34.246Z,22.05
2022-08-03T06:05:00.815Z,22.19
2022-08-03T06:07:27.719Z,22.26
2022-08-03T06:10:33.782Z,22.21
2022-08-03T06:12:41.436Z,22.15
2022-08-03T06:15:11.420Z,22.30
2022-08-03T06:17:48.473Z,22.34
2022-08-03T06:20:19.697Z,22.61
2022-08-03T06:22:50.467Z,22.72
2022-08-03T06:25:17.822Z,22.76
2022-08-03T06:27:47.874Z,23.04
2022-08-03T06:30:18.069Z,23.20
2022-08-03T06:32:51.733Z,23.43
2022-08-03T06:35:19.337Z,23.48
2022-08-03T06:37:51.041Z,23.60
2022-08-03T06:40:24.399Z,24.02
2022-08-03T06:42:51.427Z,23.80
2022-08-03T06:45:18.135Z,24.19
2022-08-03T06:47:44.715Z,24.36
2022-08-03T06:50:16.400Z,24.58
2022-08-03T06:52:44.555Z,24.83
2022-08-03T06:55:11.506Z,24.90
2022-08-03T06:57:38.003Z,24.70
2022-08-03T07:00:09.498Z,25.17
2022-08-03T07:02:39.707Z,25.28
2022-08-03T07:05:07.852Z,25.63
2022-08-03T07:07:34.491Z,26.01
2022-08-03T07:10:02.254Z,25.86
2022-08-03T07:12:30.584Z,25.90
2022-08-03T07:15:01.244Z,25.86
2022-08-03T07:17:34.565Z,26.29
2022-08-03T07:20:03.645Z,26.46
2022-08-03T07:22:30.302Z,26.63
2022-08-03T07:24:56.876Z,26.71
2022-08-03T07:27:23.763Z,27.19
2022-08-03T07:29:50.368Z,27.31
2022-08-03T07:32:17.120Z,27.47
2022-08-03T07:34:43.866Z,27.32
2022-08-03T07:37:10.395Z,27.73
2022-08-03T07:39:36.965Z,27.71
2022-08-03T07:42:04.150Z,27.66
2022-08-03T07:44:30.761Z,27.83
2022-08-03T07:46:57.811Z,27.92
2022-08-03T07:49:24.793Z,27.98
2022-08-03T07:52:11.402Z,28.01
2022-08-03T07:54:38.158Z,28.03
2022-08-03T07:57:04.720Z,28.01
2022-08-03T07:59:56.627Z,28.21
2022-08-03T08:02:18.194Z,28.76
2022-08-03T08:04:44.887Z,28.09
2022-08-03T08:07:11.479Z,28.79
2022-08-03T08:09:37.959Z,29.63
2022-08-03T08:12:04.921Z,30.03
2022-08-03T08:14:42.505Z,30.95
2022-08-03T08:17:08.963Z,30.52
2022-08-03T08:19:35.404Z,30.86
2022-08-03T08:22:06.818Z,30.51
2022-08-03T08:24:34.078Z,31.22
2022-08-03T08:27:03.845Z,31.23
2022-08-03T08:29:30.536Z,30.93
2022-08-03T08:31:57.024Z,30.59
2022-08-03T08:34:23.544Z,30.92
2022-08-03T08:36:50.166Z,30.59
2022-08-03T08:39:17.582Z,30.57
2022-08-03T08:41:46.438Z,30.71
2022-08-03T08:44:14.425Z,30.51
2022-08-03T08:46:40.967Z,30.68
2022-08-03T08:49:10.694Z,30.94
2022-08-03T08:51:59.634Z,30.72
2022-08-03T08:54:29.231Z,31.01
2022-08-03T08:56:57.440Z,31.19
2022-08-03T08:59:25.236Z,31.27
2022-08-03T09:01:56.662Z,31.36
2022-08-03T09:04:23.453Z,31.23
2022-08-03T09:07:04.701Z,31.22
2022-08-03T09:10:12.681Z,31.40
2022-08-03T09:12:40.864Z,31.21
2022-08-03T09:15:18.936Z,31.34
2022-08-03T09:17:50.672Z,31.17
2022-08-03T09:20:18.367Z,31.62
2022-08-03T09:23:09.707Z,31.42
2022-08-03T09:25:59.903Z,31.48
2022-08-03T09:29:00.544Z,31.44
2022-08-03T09:31:33.072Z,30.95
2022-08-03T09:34:05.281Z,30.97
2022-08-03T09:36:37.319Z,30.99
2022-08-03T09:39:06.450Z,31.27
2022-08-03T09:41:34.052Z,31.17
2022-08-03T09:44:00.587Z,31.65
2022-08-03T09:46:31.724Z,31.82
2022-08-03T09:49:12.185Z,31.86
2022-08-03T09:52:31.467Z,31.51
2022-08-03T09:54:31.859Z,32.18
2022-08-03T09:56:58.701Z,32.53
2022-08-03T09:59:30.191Z,32.38
2022-08-03T10:01:58.298Z,32.47
2022-08-03T10:04:25.163Z,33.00
2022-08-03T10:07:11.459Z,33.64
2022-08-03T10:09:38.409Z,33.88
2022-08-03T10:12:12.943Z,34.70
2022-08-03T10:14:45.799Z,35.33
2022-08-03T10:17:13.025Z,35.26
2022-08-03T10:19:41.255Z,34.61
2022-08-03T10:22:13.770Z,34.82
2022-08-03T10:24:47.826Z,35.88
2022-08-03T10:27:15.698Z,35.85
2022-08-03T10:29:50.450Z,36.27
2022-08-03T10:32:29.133Z,34.89
2022-08-03T10:35:20.193Z,34.57
2022-08-03T10:38:16.732Z,35.45
2022-08-03T10:40:49.499Z,35.54
2022-08-03T10:43:56.810Z,34.94
2022-08-03T10:46:23.801Z,34.87
2022-08-03T10:48:52.576Z,35.56
2022-08-03T10:51:20.335Z,36.25
2022-08-03T10:53:54.219Z,36.51
2022-08-03T10:56:52.023Z,35.96
2022-08-03T10:59:27.470Z,36.67
2022-08-03T11:01:59.252Z,35.28
2022-08-03T11:04:29.999Z,35.36
2022-08-03T11:07:16.087Z,36.09
2022-08-03T11:09:45.401Z,36.65
2022-08-03T11:12:30.231Z,36.24
2022-08-03T11:15:04.687Z,36.26
2022-08-03T11:17:33.143Z,35.85
2022-08-03T11:19:59.937Z,36.07
2022-08-03T11:22:50.940Z,35.78
2022-08-03T11:25:53.598Z,36.63
2022-08-03T11:28:27.258Z,36.90
2022-08-03T11:30:54.171Z,36.46
2022-08-03T11:33:31.309Z,37.06
2022-08-03T11:36:00.168Z,37.20
2022-08-03T11:38:26.962Z,36.81
2022-08-03T11:40:54.569Z,37.19
2022-08-03T11:43:31.421Z,36.37
2022-08-03T11:46:03.833Z,36.98
2022-08-03T11:48:36.320Z,36.40
2022-08-03T11:51:19.414Z,36.24
2022-08-03T11:53:47.892Z,35.79
2022-08-03T11:56:14.648Z,37.18
2022-08-03T11:59:16.587Z,36.80
2022-08-03T12:01:36.307Z,37.55
2022-08-03T12:04:04.850Z,37.47
2022-08-03T12:06:31.577Z,37.16
2022-08-03T12:08:58.143Z,37.41
2022-08-03T12:11:24.746Z,36.81
2022-08-03T12:14:35.762Z,37.86
2022-08-03T12:16:38.134Z,37.46
2022-08-03T12:19:06.963Z,36.41
2022-08-03T12:21:33.820Z,37.20
2022-08-03T12:24:05.029Z,36.91
2022-08-03T12:26:58.535Z,36.27
2022-08-03T12:29:26.376Z,36.02
2022-08-03T12:31:53.301Z,36.97
2022-08-03T12:34:19.907Z,36.36
2022-08-03T12:36:56.191Z,37.20
2022-08-03T12:39:24.401Z,37.00
2022-08-03T12:41:54.432Z,36.74
2022-08-03T12:44:30.841Z,36.41
2022-08-03T12:46:59.099Z,36.72
2022-08-03T12:49:26.570Z,37.16
2022-08-03T12:51:53.532Z,36.88
2022-08-03T12:54:24.404Z,36.90
2022-08-03T12:57:01.810Z,36.24
2022-08-03T12:59:35.320Z,37.13
2022-08-03T13:02:16.277Z,36.60
2022-08-03T13:04:48.458Z,36.62
2022-08-03T13:07:16.726Z,36.73
2022-08-03T13:09:49.767Z,36.88
2022-08-03T13:12:18.346Z,37.12
2022-08-03T13:14:47.630Z,36.30
2022-08-03T13:17:16.911Z,36.04
2022-08-03T13:19:44.464Z,35.78
2022-08-03T13:22:25.143Z,35.89
2022-08-03T13:24:55.904Z,35.51
2022-08-03T13:28:04.379Z,35.45
2022-08-03T13:30:10.085Z,35.08
2022-08-03T13:32:36.688Z,35.46
2022-08-03T13:35:04.461Z,35.33
2022-08-03T13:37:32.439Z,35.36
2022-08-03T13:40:03.051Z,35.33
2022-08-03T13:42:32.367Z,35.29
2022-08-03T13:45:00.168Z,34.84
2022-08-03T13:47:27.358Z,35.00
2022-08-03T13:50:01.387Z,35.14
2022-08-03T13:52:38.152Z,34.99
2022-08-03T13:55:06.829Z,35.38
2022-08-03T13:58:02.920Z,35.43
2022-08-03T14:00:27.296Z,35.42
2022-08-03T14:03:02.926Z,35.13
2022-08-03T14:05:32.243Z,34.76
2022-08-03T14:08:04.202Z,34.78
2022-08-03T14:10:36.622Z,34.59
2022-08-03T14:13:04.560Z,34.75
2022-08-03T14:15:31.500Z,34.57
2022-08-03T14:17:58.469Z,34.46
2022-08-03T14:20:38.836Z,34.24
2022-08-03T14:23:12.930Z,34.30
2022-08-03T14:25:50.465Z,34.69
2022-08-03T14:28:20.198Z,34.36
2022-08-03T14:30:47.883Z,34.88
2022-08-03T14:33:14.847Z,34.48
2022-08-03T14:35:41.594Z,34.02
2022-08-03T14:38:08.192Z,34.55
2022-08-03T14:40:34.809Z,34.24
2022-08-03T14:43:02.473Z,34.62
2022-08-03T14:45:29.184Z,34.44
2022-08-03T14:50:24.408Z,34.37
2022-08-03T14:50:48.304Z,34.49
2022-08-03T14:53:20.268Z,34.29
2022-08-03T14:55:50.941Z,34.38
2022-08-03T14:58:27.712Z,34.25
2022-08-03T15:00:55.550Z,34.67
2022-08-03T15:03:24.771Z,34.19
2022-08-03T15:05:53.338Z,33.53
2022-08-03T15:08:20.795Z,34.35
2022-08-03T15:10:49.131Z,34.33
2022-08-03T15:13:17.029Z,34.11
2022-08-03T15:15:43.915Z,34.08
2022-08-03T15:18:10.516Z,34.49
2022-08-03T15:20:44.566Z,34.48
2022-08-03T15:23:13.988Z,34.57
2022-08-03T15:26:31.703Z,34.36
2022-08-03T15:28:27.270Z,34.38
2022-08-03T15:30:53.806Z,34.04
2022-08-03T15:33:20.562Z,34.36
2022-08-03T15:35:47.773Z,34.48
2022-08-03T15:38:14.764Z,34.34
2022-08-03T15:40:41.668Z,34.30
2022-08-03T15:43:08.504Z,34.35
2022-08-03T15:45:36.569Z,34.13
2022-08-03T15:48:07.144Z,33.92
2022-08-03T15:50:34.589Z,33.96
2022-08-03T15:53:01.182Z,34.06
2022-08-03T15:55:27.974Z,33.82
2022-08-03T15:59:10.684Z,34.13
2022-08-03T16:00:42.849Z,33.83
2022-08-03T16:03:10.426Z,33.80
2022-08-03T16:05:37.235Z,34.04
2022-08-03T16:08:05.651Z,33.87
2022-08-03T16:10:33.736Z,33.66
2022-08-03T16:13:00.494Z,33.64
2022-08-03T16:15:27.859Z,33.81
2022-08-03T16:17:54.710Z,34.12
2022-08-03T16:20:33.890Z,33.89
2022-08-03T16:23:10.360Z,33.63
2022-08-03T16:25:39.363Z,33.93
2022-08-03T16:28:12.776Z,33.74
2022-08-03T16:30:41.892Z,33.88
2022-08-03T16:33:08.683Z,34.09
2022-08-03T16:35:35.369Z,33.65
2022-08-03T16:38:06.532Z,33.78
2022-08-03T16:40:36.354Z,33.78
2022-08-03T16:43:18.990Z,33.95
2022-08-03T16:45:47.373Z,34.00
2022-08-03T16:48:18.426Z,34.04
2022-08-03T16:50:45.324Z,34.10
2022-08-03T16:53:15.626Z,33.80
2022-08-03T16:55:53.946Z,33.86
2022-08-03T16:58:34.511Z,33.65
2022-08-03T17:01:22.377Z,33.69
2022-08-03T17:04:01.698Z,33.77
2022-08-03T17:06:33.936Z,33.77
2022-08-03T17:09:02.230Z,33.66
2022-08-03T17:11:30.234Z,33.48
2022-08-03T17:14:00.232Z,33.31
2022-08-03T17:16:27.118Z,33.34
2022-08-03T17:19:03.985Z,33.46
2022-08-03T17:21:33.134Z,33.04
2022-08-03T17:24:12.120Z,33.19
2022-08-03T17:26:43.602Z,33.13
2022-08-03T17:29:13.376Z,33.21
2022-08-03T17:31:48.519Z,33.15
2022-08-03T17:34:16.634Z,33.24
2022-08-03T17:39:56.833Z,32.97
2022-08-03T17:42:30.520Z,33.09
2022-08-03T17:45:02.287Z,33.05
2022-08-03T17:47:42.151Z,32.89
2022-08-03T17:50:24.363Z,32.71
2022-08-03T17:53:07.278Z,32.79
2022-08-03T17:55:56.779Z,32.57
2022-08-03T17:58:56.514Z,32.27
2022-08-03T18:01:58.286Z,32.29
2022-08-03T18:04:33.552Z,31.91
2022-08-03T18:07:11.715Z,31.93
2022-08-03T18:10:04.424Z,31.88
2022-08-03T18:12:37.154Z,31.69
2022-08-03T18:15:08.388Z,31.66
2022-08-03T18:17:55.905Z,31.48
2022-08-03T18:20:32.807Z,31.38
2022-08-03T18:23:05.958Z,31.27
2022-08-03T18:25:43.098Z,31.07
2022-08-03T18:28:18.512Z,30.89
2022-08-03T18:30:53.383Z,30.76
2022-08-03T18:34:18.377Z,30.76
2022-08-03T18:36:22.179Z,30.51
2022-08-03T18:38:58.656Z,30.38
2022-08-03T18:41:33.439Z,30.25
2022-08-03T18:44:37.500Z,30.12
2022-08-03T18:47:16.502Z,30.02
2022-08-03T18:49:55.313Z,29.86
2022-08-03T18:52:35.442Z,29.64
2022-08-03T18:55:20.635Z,29.59
2022-08-03T18:58:15.906Z,29.49
2022-08-03T19:01:57.225Z,29.41
2022-08-03T19:04:08.565Z,29.08
2022-08-03T19:06:42.211Z,28.91
2022-08-03T19:09:49.410Z,28.79
2022-08-03T19:12:30.780Z,28.54
2022-08-03T19:15:04.433Z,28.43
2022-08-03T19:17:36.119Z,28.30
2022-08-03T19:20:08.738Z,28.25
2022-08-03T19:22:38.011Z,28.09
2022-08-03T19:25:06.459Z,27.95
2022-08-03T19:27:39.690Z,27.76
2022-08-03T19:30:21.947Z,27.73
2022-08-03T19:32:54.346Z,27.61
2022-08-03T19:35:52.046Z,27.56
2022-08-03T19:38:08.833Z,27.43
2022-08-03T19:40:42.013Z,27.44
2022-08-03T19:43:17.619Z,27.33
2022-08-03T19:46:05.474Z,27.16
2022-08-03T19:48:34.683Z,27.11
2022-08-03T19:51:04.554Z,27.03
2022-08-03T19:53:45.138Z,27.01
2022-08-03T19:56:14.411Z,26.93
2022-08-03T19:58:43.051Z,26.92
2022-08-03T20:01:21.331Z,26.87
2022-08-03T20:03:49.203Z,26.85
2022-08-03T20:06:17.667Z,26.86
2022-08-03T20:08:44.504Z,26.87
2022-08-03T20:11:11.319Z,26.86
2022-08-03T20:16:25.526Z,26.73
2022-08-03T20:18:52.067Z,26.73
2022-08-03T20:21:20.748Z,26.64
2022-08-03T20:24:00.047Z,26.58
2022-08-03T20:26:30.578Z,26.49
2022-08-03T20:29:10.037Z,26.44
2022-08-03T20:31:37.586Z,26.33
2022-08-03T20:34:06.118Z,26.37
2022-08-03T20:36:32.827Z,26.24
2022-08-03T20:38:59.688Z,26.24
2022-08-03T20:41:26.619Z,26.21
2022-08-03T20:43:53.209Z,26.00
2022-08-03T20:46:30.889Z,25.96
2022-08-03T20:49:01.503Z,25.79
2022-08-03T20:51:50.373Z,25.89
2022-08-03T20:54:31.122Z,25.76
2022-08-03T20:57:04.421Z,25.78
2022-08-03T20:59:50.519Z,25.72
2022-08-03T21:02:29.109Z,25.64
2022-08-03T21:04:59.102Z,25.54
2022-08-03T21:08:04.046Z,25.47
2022-08-03T21:10:21.241Z,25.43
2022-08-03T21:13:10.763Z,26.89
2022-08-03T21:13:15.471Z,25.51
2022-08-03T21:16:03.228Z,25.33
2022-08-03T21:18:41.831Z,25.17
2022-08-03T21:21:11.392Z,25.10
2022-08-03T21:23:48.753Z,25.04
2022-08-03T21:26:24.270Z,24.99
2022-08-03T21:28:53.774Z,25.03
2022-08-03T21:31:25.316Z,24.98
2022-08-03T21:34:03.792Z,24.83
2022-08-03T21:36:33.178Z,24.80
2022-08-03T21:39:00.466Z,24.70
2022-08-03T21:41:30.069Z,24.70
2022-08-03T21:43:57.319Z,24.70
2022-08-03T21:46:25.979Z,24.61
2022-08-03T21:50:06.776Z,24.55
2022-08-03T21:51:49.853Z,24.43
2022-08-03T21:54:16.806Z,24.38
2022-08-03T21:56:47.494Z,24.35
2022-08-03T21:59:19.105Z,24.29
2022-08-03T22:01:49.151Z,24.23
2022-08-03T22:04:50.178Z,24.17
2022-08-03T22:07:08.203Z,24.07
2022-08-03T22:09:35.867Z,24.06
2022-08-03T22:12:02.810Z,24.04
2022-08-03T22:14:32.291Z,23.99
2022-08-03T22:16:59.881Z,23.94
2022-08-03T22:19:26.484Z,23.87
2022-08-03T22:21:54.405Z,23.94
2022-08-03T22:24:23.929Z,23.81
2022-08-03T22:27:09.800Z,23.81
2022-08-03T22:29:36.873Z,23.78
2022-08-03T22:32:03.605Z,23.66
2022-08-03T22:34:30.268Z,23.68
2022-08-03T22:37:03.058Z,23.61
2022-08-03T22:39:30.501Z,23.53
2022-08-03T22:42:01.209Z,23.43
2022-08-03T22:44:28.144Z,23.37
2022-08-03T22:46:55.646Z,23.38
2022-08-03T22:49:22.848Z,23.37
2022-08-03T22:51:51.711Z,23.27
2022-08-03T22:54:18.608Z,23.20
2022-08-03T22:56:47.890Z,23.23
2022-08-03T22:59:38.823Z,23.27
2022-08-03T23:02:20.290Z,23.14
2022-08-03T23:04:56.525Z,23.09
2022-08-03T23:07:33.123Z,23.03
2022-08-03T23:10:01.483Z,22.93
2022-08-03T23:12:30.394Z,22.88
2022-08-03T23:15:01.091Z,22.97
2022-08-03T23:17:30.838Z,22.82
2022-08-03T23:20:08.483Z,22.86
2022-08-03T23:22:38.308Z,22.85
2022-08-03T23:25:09.965Z,22.66
2022-08-03T23:27:40.522Z,22.73
2022-08-03T23:30:10.109Z,22.70
2022-08-03T23:32:37.370Z,22.57
2022-08-03T23:36:28.725Z,22.55
2022-08-03T23:38:22.886Z,22.49
2022-08-03T23:40:51.361Z,22.37
2022-08-03T23:43:50.888Z,22.35
2022-08-03T23:46:09.071Z,22.35
2022-08-03T23:48:35.873Z,22.27
2022-08-03T23:51:35.133Z,22.25
2022-08-03T23:54:26.678Z,22.28
2022-08-03T23:57:14.424Z,22.08
